createdAt,value
2022-09-18T00:00:58.104Z,1003.05
2022-09-18T00:01:58.283Z,1003.05
2022-09-18T00:02:58.138Z,1003.07
2022-09-18T00:03:58.105Z,1003.08
2022-09-18T00:04:58.174Z,1003.05
2022-09-18T00:05:58.100Z,1003.07
2022-09-18T00:06:58.373Z,1003.11
2022-09-18T00:07:58.310Z,1003.11
2022-09-18T00:08:58.691Z,1003.11
2022-09-18T00:09:58.605Z,1003.14
2022-09-18T00:10:57.871Z,1003.08
2022-09-18T00:11:58.146Z,1003.14
2022-09-18T00:12:58.487Z,1003.15
2022-09-18T00:13:57.750Z,1003.12
2022-09-18T00:14:58.043Z,1003.13
2022-09-18T00:15:58.398Z,1003.09
2022-09-18T00:16:58.638Z,1003.14
2022-09-18T00:17:58.119Z,1003.09
2022-09-18T00:18:58.626Z,1003.12
2022-09-18T00:19:58.824Z,1003.14
2022-09-18T00:20:58.121Z,1003.12
2022-09-18T00:21:58.199Z,1003.14
2022-09-18T00:22:58.126Z,1003.14
2022-09-18T00:23:58.106Z,1003.1
2022-09-18T00:24:58.115Z,1003.11
2022-09-18T00:25:58.128Z,1003.1
2022-09-18T00:26:58.120Z,1003.07
2022-09-18T00:27:58.135Z,1003.07
2022-09-18T00:28:58.111Z,1003.07
2022-09-18T00:29:58.099Z,1003.05
2022-09-18T00:30:58.117Z,1003.06
2022-09-18T00:31:58.179Z,1003.06
2022-09-18T00:32:58.216Z,1003.1
2022-09-18T00:33:58.186Z,1003.08
2022-09-18T00:34:58.110Z,1003.05
2022-09-18T00:35:58.107Z,1003.07
2022-09-18T00:36:58.068Z,1003.02
2022-09-18T00:37:58.108Z,1003.02
2022-09-18T00:38:58.194Z,1003.01
2022-09-18T00:39:58.536Z,1003.03
2022-09-18T00:40:58.300Z,1003.05
2022-09-18T00:41:58.118Z,1003.05
2022-09-18T00:42:58.363Z,1003.07
2022-09-18T00:43:58.278Z,1003.08
2022-09-18T00:44:58.471Z,1003.1
2022-09-18T00:45:58.241Z,1003.1
2022-09-18T00:46:58.191Z,1003.11
2022-09-18T00:47:58.378Z,1003.12
2022-09-18T00:48:58.193Z,1003.08
2022-09-18T00:49:58.616Z,1003.14
2022-09-18T00:50:58.701Z,1003.08
2022-09-18T00:51:58.908Z,1003.12
2022-09-18T00:52:59.263Z,1003.11
2022-09-18T00:53:59.911Z,1003.11
2022-09-18T00:54:58.324Z,1003.08
2022-09-18T00:55:58.085Z,1003.07
2022-09-18T00:56:58.383Z,1003.11
2022-09-18T00:57:58.533Z,1003.07
2022-09-18T00:58:58.207Z,1003.02
2022-09-18T00:59:58.409Z,1003.05
2022-09-18T01:00:58.756Z,1003.09
2022-09-18T01:01:58.251Z,1003.06
2022-09-18T01:02:58.913Z,1003.04
2022-09-18T01:03:58.577Z,1003.04
2022-09-18T01:04:58.296Z,1003.06
2022-09-18T01:05:58.128Z,1003.03
2022-09-18T01:06:58.457Z,1003.09
2022-09-18T01:07:58.189Z,1003.16
2022-09-18T01:08:58.423Z,1003.15
2022-09-18T01:09:58.175Z,1003.13
2022-09-18T01:10:58.420Z,1003.1
2022-09-18T01:11:58.217Z,1003.1
2022-09-18T01:12:58.285Z,1003.09
2022-09-18T01:13:58.176Z,1003.11
2022-09-18T01:14:58.331Z,1003.18
2022-09-18T01:15:58.111Z,1003.12
2022-09-18T01:16:58.198Z,1003.12
2022-09-18T01:17:58.395Z,1003.09
2022-09-18T01:18:58.201Z,1003.06
2022-09-18T01:19:58.130Z,1003.02
2022-09-18T01:20:58.152Z,1003.04
2022-09-18T01:21:58.412Z,1003
2022-09-18T01:22:58.119Z,1002.97
2022-09-18T01:23:58.114Z,1003
2022-09-18T01:24:58.128Z,1003
2022-09-18T01:25:58.126Z,1002.97
2022-09-18T01:26:58.107Z,1003.04
2022-09-18T01:27:58.122Z,1003.02
2022-09-18T01:28:58.103Z,1003.03
2022-09-18T01:29:58.103Z,1003.07
2022-09-18T01:30:58.156Z,1003.05
2022-09-18T01:31:58.119Z,1003.06
2022-09-18T01:32:58.136Z,1003.08
2022-09-18T01:33:58.129Z,1003.09
2022-09-18T01:34:58.127Z,1003.11
2022-09-18T01:35:58.236Z,1003.11
2022-09-18T01:36:58.284Z,1003.06
2022-09-18T01:37:58.242Z,1003.11
2022-09-18T01:38:58.127Z,1003.12
2022-09-18T01:39:58.146Z,1003.12
2022-09-18T01:40:58.111Z,1003.11
2022-09-18T01:41:58.113Z,1003.13
2022-09-18T01:42:58.159Z,1003.14
2022-09-18T01:43:58.103Z,1003.12
2022-09-18T01:44:58.143Z,1003.13
2022-09-18T01:45:58.139Z,1003.13
2022-09-18T01:46:58.136Z,1003.11
2022-09-18T01:47:58.138Z,1003.11
2022-09-18T01:48:58.112Z,1003.09
2022-09-18T01:49:58.124Z,1003.09
2022-09-18T01:50:58.115Z,1003.1
2022-09-18T01:51:58.091Z,1003.06
2022-09-18T01:52:58.114Z,1003.08
2022-09-18T01:53:58.116Z,1003.08
2022-09-18T01:54:58.111Z,1003.06
2022-09-18T01:55:58.106Z,1003.03
2022-09-18T01:56:58.133Z,1003.04
2022-09-18T01:57:58.133Z,1003.02
2022-09-18T01:58:58.114Z,1003.06
2022-09-18T01:59:58.122Z,1003.07
2022-09-18T02:00:58.118Z,1003.11
2022-09-18T02:01:58.179Z,1003.09
2022-09-18T02:02:58.191Z,1003.08
2022-09-18T02:03:58.105Z,1003.05
2022-09-18T02:04:58.109Z,1003.05
2022-09-18T02:05:58.108Z,1003.07
2022-09-18T02:06:58.123Z,1003.03
2022-09-18T02:07:58.156Z,1003.06
2022-09-18T02:08:58.187Z,1003.1
2022-09-18T02:09:58.120Z,1003.05
2022-09-18T02:10:58.142Z,1003
2022-09-18T02:11:58.101Z,1002.99
2022-09-18T02:12:58.119Z,1003
2022-09-18T02:13:58.111Z,1002.99
2022-09-18T02:14:58.114Z,1002.96
2022-09-18T02:15:58.128Z,1002.92
2022-09-18T02:16:58.104Z,1002.96
2022-09-18T02:17:58.132Z,1002.94
2022-09-18T02:18:58.117Z,1002.99
2022-09-18T02:19:58.131Z,1002.92
2022-09-18T02:20:58.118Z,1003.01
2022-09-18T02:21:58.103Z,1002.94
2022-09-18T02:22:58.116Z,1002.95
2022-09-18T02:23:58.132Z,1002.95
2022-09-18T02:24:58.200Z,1002.89
2022-09-18T02:25:58.423Z,1002.88
2022-09-18T02:26:58.156Z,1002.9
2022-09-18T02:27:58.424Z,1002.93
2022-09-18T02:28:58.500Z,1002.89
2022-09-18T02:29:58.619Z,1002.87
2022-09-18T02:30:58.292Z,1002.9
2022-09-18T02:31:58.627Z,1002.89
2022-09-18T02:32:58.401Z,1002.91
2022-09-18T02:33:58.209Z,1002.85
2022-09-18T02:34:58.385Z,1002.88
2022-09-18T02:35:58.457Z,1002.86
2022-09-18T02:36:58.749Z,1002.89
2022-09-18T02:37:59.002Z,1002.83
2022-09-18T02:38:58.527Z,1002.85
2022-09-18T02:39:58.267Z,1002.86
2022-09-18T02:40:58.119Z,1002.86
2022-09-18T02:41:58.359Z,1002.88
2022-09-18T02:42:58.120Z,1002.86
2022-09-18T02:43:58.173Z,1002.89
2022-09-18T02:44:58.109Z,1002.86
2022-09-18T02:45:58.098Z,1002.88
2022-09-18T02:46:58.140Z,1002.91
2022-09-18T02:47:58.110Z,1002.86
2022-09-18T02:48:58.113Z,1002.88
2022-09-18T02:49:58.114Z,1002.87
2022-09-18T02:50:58.102Z,1002.82
2022-09-18T02:51:58.195Z,1002.85
2022-09-18T02:52:58.140Z,1002.87
2022-09-18T02:53:58.209Z,1002.84
2022-09-18T02:54:58.102Z,1002.87
2022-09-18T02:55:58.102Z,1002.85
2022-09-18T02:56:58.103Z,1002.84
2022-09-18T02:57:58.102Z,1002.88
2022-09-18T02:58:58.107Z,1002.87
2022-09-18T02:59:58.102Z,1002.86
2022-09-18T03:00:58.112Z,1002.87
2022-09-18T03:01:58.225Z,1002.87
2022-09-18T03:02:58.303Z,1002.84
2022-09-18T03:03:58.109Z,1002.87
2022-09-18T03:04:58.197Z,1002.87
2022-09-18T03:05:58.097Z,1002.87
2022-09-18T03:06:58.100Z,1002.82
2022-09-18T03:07:58.107Z,1002.83
2022-09-18T03:08:58.118Z,1002.87
2022-09-18T03:09:58.115Z,1002.86
2022-09-18T03:10:58.099Z,1002.84
2022-09-18T03:11:58.127Z,1002.86
2022-09-18T03:12:58.155Z,1002.84
2022-09-18T03:13:58.116Z,1002.8
2022-09-18T03:14:58.164Z,1002.76
2022-09-18T03:15:58.122Z,1002.79
2022-09-18T03:16:58.106Z,1002.78
2022-09-18T03:17:58.096Z,1002.75
2022-09-18T03:18:58.094Z,1002.74
2022-09-18T03:19:58.166Z,1002.67
2022-09-18T03:20:58.092Z,1002.68
2022-09-18T03:21:58.190Z,1002.7
2022-09-18T03:22:58.572Z,1002.67
2022-09-18T03:23:58.472Z,1002.64
2022-09-18T03:24:58.680Z,1002.65
2022-09-18T03:25:57.918Z,1002.69
2022-09-18T03:26:58.234Z,1002.68
2022-09-18T03:27:58.460Z,1002.66
2022-09-18T03:28:57.831Z,1002.71
2022-09-18T03:29:58.165Z,1002.74
2022-09-18T03:30:58.427Z,1002.7
2022-09-18T03:31:58.008Z,1002.75
2022-09-18T03:32:58.260Z,1002.74
2022-09-18T03:33:58.617Z,1002.73
2022-09-18T03:34:58.912Z,1002.7
2022-09-18T03:35:58.117Z,1002.73
2022-09-18T03:36:58.118Z,1002.72
2022-09-18T03:37:58.115Z,1002.73
2022-09-18T03:38:58.090Z,1002.68
2022-09-18T03:39:58.234Z,1002.67
2022-09-18T03:40:58.103Z,1002.66
2022-09-18T03:41:58.087Z,1002.7
2022-09-18T03:42:58.115Z,1002.69
2022-09-18T03:43:58.092Z,1002.71
2022-09-18T03:44:58.083Z,1002.73
2022-09-18T03:45:58.175Z,1002.75
2022-09-18T03:46:58.284Z,1002.74
2022-09-18T03:47:58.095Z,1002.72
2022-09-18T03:48:58.240Z,1002.76
2022-09-18T03:49:58.329Z,1002.71
2022-09-18T03:50:58.481Z,1002.71
2022-09-18T03:51:58.106Z,1002.72
2022-09-18T03:52:58.422Z,1002.74
2022-09-18T03:53:58.326Z,1002.74
2022-09-18T03:54:58.117Z,1002.75
2022-09-18T03:55:58.249Z,1002.81
2022-09-18T03:56:58.257Z,1002.78
2022-09-18T03:57:58.527Z,1002.76
2022-09-18T03:58:58.238Z,1002.75
2022-09-18T03:59:58.499Z,1002.77
2022-09-18T04:00:58.081Z,1002.78
2022-09-18T04:01:58.220Z,1002.79
2022-09-18T04:02:58.191Z,1002.74
2022-09-18T04:03:58.091Z,1002.79
2022-09-18T04:04:58.280Z,1002.77
2022-09-18T04:05:58.487Z,1002.73
2022-09-18T04:06:58.276Z,1002.72
2022-09-18T04:07:58.563Z,1002.72
2022-09-18T04:08:58.486Z,1002.69
2022-09-18T04:09:58.619Z,1002.68
2022-09-18T04:10:58.505Z,1002.69
2022-09-18T04:11:58.816Z,1002.68
2022-09-18T04:12:58.500Z,1002.65
2022-09-18T04:13:58.233Z,1002.66
2022-09-18T04:14:58.483Z,1002.66
2022-09-18T04:15:58.698Z,1002.7
2022-09-18T04:16:58.465Z,1002.66
2022-09-18T04:17:58.390Z,1002.64
2022-09-18T04:18:58.604Z,1002.69
2022-09-18T04:19:58.260Z,1002.67
2022-09-18T04:20:58.574Z,1002.65
2022-09-18T04:21:59.481Z,1002.67
2022-09-18T04:22:58.207Z,1002.64
2022-09-18T04:23:58.108Z,1002.65
2022-09-18T04:24:58.158Z,1002.7
2022-09-18T04:25:58.385Z,1002.65
2022-09-18T04:26:58.236Z,1002.7
2022-09-18T04:27:58.117Z,1002.72
2022-09-18T04:28:58.118Z,1002.77
2022-09-18T04:29:58.250Z,1002.75
2022-09-18T04:30:58.426Z,1002.71
2022-09-18T04:31:58.156Z,1002.7
2022-09-18T04:32:58.103Z,1002.62
2022-09-18T04:33:58.283Z,1002.63
2022-09-18T04:34:58.099Z,1002.62
2022-09-18T04:35:58.149Z,1002.64
2022-09-18T04:36:58.194Z,1002.62
2022-09-18T04:37:58.382Z,1002.64
2022-09-18T04:38:58.111Z,1002.65
2022-09-18T04:39:58.130Z,1002.65
2022-09-18T04:40:58.114Z,1002.64
2022-09-18T04:41:58.115Z,1002.67
2022-09-18T04:42:58.129Z,1002.66
2022-09-18T04:43:58.114Z,1002.64
2022-09-18T04:44:58.230Z,1002.67
2022-09-18T04:45:58.104Z,1002.72
2022-09-18T04:46:58.186Z,1002.71
2022-09-18T04:47:58.133Z,1002.68
2022-09-18T04:48:58.118Z,1002.72
2022-09-18T04:49:58.119Z,1002.72
2022-09-18T04:50:58.093Z,1002.72
2022-09-18T04:51:58.124Z,1002.74
2022-09-18T04:52:58.191Z,1002.69
2022-09-18T04:53:58.125Z,1002.68
2022-09-18T04:54:58.127Z,1002.67
2022-09-18T04:55:58.136Z,1002.63
2022-09-18T04:56:58.101Z,1002.57
2022-09-18T04:57:58.118Z,1002.62
2022-09-18T04:58:58.115Z,1002.59
2022-09-18T04:59:58.100Z,1002.54
2022-09-18T05:00:58.129Z,1002.57
2022-09-18T05:01:58.123Z,1002.56
2022-09-18T05:02:58.135Z,1002.55
2022-09-18T05:03:58.164Z,1002.54
2022-09-18T05:04:58.106Z,1002.58
2022-09-18T05:05:58.113Z,1002.58
2022-09-18T05:06:58.117Z,1002.57
2022-09-18T05:07:58.251Z,1002.58
2022-09-18T05:08:58.246Z,1002.56
2022-09-18T05:09:58.251Z,1002.53
2022-09-18T05:10:58.255Z,1002.59
2022-09-18T05:11:58.259Z,1002.5
2022-09-18T05:12:58.259Z,1002.56
2022-09-18T05:13:58.247Z,1002.55
2022-09-18T05:14:58.258Z,1002.55
2022-09-18T05:15:58.338Z,1002.55
2022-09-18T05:16:58.262Z,1002.6
2022-09-18T05:17:58.374Z,1002.55
2022-09-18T05:18:58.264Z,1002.6
2022-09-18T05:19:58.300Z,1002.59
2022-09-18T05:20:58.255Z,1002.61
2022-09-18T05:21:58.250Z,1002.6
2022-09-18T05:22:58.274Z,1002.64
2022-09-18T05:23:58.261Z,1002.59
2022-09-18T05:24:58.269Z,1002.6
2022-09-18T05:25:58.271Z,1002.6
2022-09-18T05:26:58.252Z,1002.58
2022-09-18T05:27:58.262Z,1002.6
2022-09-18T05:28:58.282Z,1002.61
2022-09-18T05:29:58.351Z,1002.58
2022-09-18T05:30:58.384Z,1002.54
2022-09-18T05:31:58.512Z,1002.5
2022-09-18T05:33:01.397Z,1002.49
2022-09-18T05:33:58.382Z,1002.51
2022-09-18T05:34:58.487Z,1002.55
2022-09-18T05:35:58.390Z,1002.53
2022-09-18T05:36:58.401Z,1002.6
2022-09-18T05:37:58.379Z,1002.59
2022-09-18T05:38:58.387Z,1002.57
2022-09-18T05:39:58.388Z,1002.59
2022-09-18T05:40:58.408Z,1002.57
2022-09-18T05:41:58.527Z,1002.61
2022-09-18T05:42:58.405Z,1002.6
2022-09-18T05:43:58.434Z,1002.59
2022-09-18T05:45:04.582Z,1002.63
2022-09-18T05:45:58.502Z,1002.6
2022-09-18T05:46:58.546Z,1002.64
2022-09-18T05:47:58.519Z,1002.62
2022-09-18T05:48:58.578Z,1002.64
2022-09-18T05:49:58.281Z,1002.64
2022-09-18T05:50:58.562Z,1002.61
2022-09-18T05:51:58.576Z,1002.63
2022-09-18T05:52:59.168Z,1002.59
2022-09-18T05:53:58.531Z,1002.56
2022-09-18T05:54:58.123Z,1002.56
2022-09-18T05:55:58.395Z,1002.57
2022-09-18T05:56:58.117Z,1002.59
2022-09-18T05:57:58.106Z,1002.59
2022-09-18T05:58:58.098Z,1002.58
2022-09-18T05:59:58.111Z,1002.59
2022-09-18T06:00:58.134Z,1002.6
2022-09-18T06:01:58.141Z,1002.55
2022-09-18T06:02:58.241Z,1002.64
2022-09-18T06:03:58.109Z,1002.65
2022-09-18T06:04:58.114Z,1002.7
2022-09-18T06:05:58.098Z,1002.69
2022-09-18T06:06:58.106Z,1002.69
2022-09-18T06:08:01.425Z,1002.7
2022-09-18T06:08:58.111Z,1002.7
2022-09-18T06:09:58.102Z,1002.73
2022-09-18T06:10:58.106Z,1002.69
2022-09-18T06:11:58.108Z,1002.74
2022-09-18T06:12:58.183Z,1002.74
2022-09-18T06:13:58.283Z,1002.74
2022-09-18T06:14:58.110Z,1002.74
2022-09-18T06:15:58.149Z,1002.74
2022-09-18T06:16:58.111Z,1002.74
2022-09-18T06:17:58.111Z,1002.74
2022-09-18T06:18:58.120Z,1002.77
2022-09-18T06:19:58.128Z,1002.78
2022-09-18T06:20:58.101Z,1002.76
2022-09-18T06:21:58.124Z,1002.78
2022-09-18T06:22:58.110Z,1002.78
2022-09-18T06:23:58.114Z,1002.81
2022-09-18T06:24:58.343Z,1002.8
2022-09-18T06:25:58.125Z,1002.75
2022-09-18T06:26:58.124Z,1002.8
2022-09-18T06:27:58.107Z,1002.83
2022-09-18T06:28:58.115Z,1002.9
2022-09-18T06:29:58.109Z,1002.82
2022-09-18T06:30:58.135Z,1002.85
2022-09-18T06:31:58.118Z,1002.86
2022-09-18T06:32:58.112Z,1002.78
2022-09-18T06:33:58.110Z,1002.82
2022-09-18T06:34:58.194Z,1002.84
2022-09-18T06:35:58.276Z,1002.86
2022-09-18T06:36:58.495Z,1002.86
2022-09-18T06:37:58.540Z,1002.84
2022-09-18T06:38:57.814Z,1002.81
2022-09-18T06:39:58.136Z,1002.87
2022-09-18T06:40:58.396Z,1002.82
2022-09-18T06:41:58.687Z,1002.87
2022-09-18T06:42:57.947Z,1002.85
2022-09-18T06:43:58.292Z,1002.87
2022-09-18T06:44:58.605Z,1002.88
2022-09-18T06:45:58.055Z,1002.86
2022-09-18T06:46:58.801Z,1002.86
2022-09-18T06:47:58.824Z,1002.88
2022-09-18T06:48:58.093Z,1002.87
2022-09-18T06:49:58.093Z,1002.86
2022-09-18T06:50:58.127Z,1002.88
2022-09-18T06:51:58.090Z,1002.87
2022-09-18T06:52:58.194Z,1002.85
2022-09-18T06:53:58.291Z,1002.84
2022-09-18T06:54:58.395Z,1002.87
2022-09-18T06:55:58.545Z,1002.85
2022-09-18T06:56:58.252Z,1002.87
2022-09-18T06:57:58.282Z,1002.84
2022-09-18T06:58:58.366Z,1002.89
2022-09-18T06:59:58.140Z,1002.85
2022-09-18T07:00:58.219Z,1002.9
2022-09-18T07:01:58.213Z,1002.85
2022-09-18T07:02:58.462Z,1002.85
2022-09-18T07:03:58.504Z,1002.83
2022-09-18T07:04:58.454Z,1002.85
2022-09-18T07:05:58.738Z,1002.87
2022-09-18T07:06:58.119Z,1002.87
2022-09-18T07:07:58.106Z,1002.85
2022-09-18T07:08:58.096Z,1002.88
2022-09-18T07:09:58.243Z,1002.9
2022-09-18T07:10:58.168Z,1002.91
2022-09-18T07:11:58.102Z,1002.9
2022-09-18T07:12:58.197Z,1002.89
2022-09-18T07:13:58.098Z,1002.87
2022-09-18T07:14:58.241Z,1002.87
2022-09-18T07:15:58.560Z,1002.85
2022-09-18T07:16:58.121Z,1002.9
2022-09-18T07:17:58.225Z,1002.88
2022-09-18T07:18:58.420Z,1002.86
2022-09-18T07:19:58.282Z,1002.85
2022-09-18T07:20:58.422Z,1002.83
2022-09-18T07:21:58.359Z,1002.86
2022-09-18T07:22:58.576Z,1002.83
2022-09-18T07:23:58.958Z,1002.84
2022-09-18T07:24:58.265Z,1002.81
2022-09-18T07:25:58.488Z,1002.84
2022-09-18T07:26:58.799Z,1002.81
2022-09-18T07:27:58.289Z,1002.87
2022-09-18T07:28:58.450Z,1002.83
2022-09-18T07:29:58.867Z,1002.84
2022-09-18T07:30:59.022Z,1002.83
2022-09-18T07:31:58.432Z,1002.79
2022-09-18T07:32:58.330Z,1002.8
2022-09-18T07:33:58.520Z,1002.78
2022-09-18T07:34:58.305Z,1002.76
2022-09-18T07:35:58.245Z,1002.78
2022-09-18T07:36:58.487Z,1002.75
2022-09-18T07:37:58.128Z,1002.76
2022-09-18T07:38:58.556Z,1002.83
2022-09-18T07:39:58.219Z,1002.82
2022-09-18T07:40:58.130Z,1002.77
2022-09-18T07:41:58.247Z,1002.76
2022-09-18T07:42:58.133Z,1002.76
2022-09-18T07:43:58.103Z,1002.71
2022-09-18T07:44:58.108Z,1002.72
2022-09-18T07:45:58.387Z,1002.74
2022-09-18T07:46:58.216Z,1002.74
2022-09-18T07:47:58.153Z,1002.71
2022-09-18T07:48:58.282Z,1002.69
2022-09-18T07:49:58.118Z,1002.72
2022-09-18T07:50:58.117Z,1002.73
2022-09-18T07:51:58.288Z,1002.69
2022-09-18T07:52:58.538Z,1002.68
2022-09-18T07:53:58.106Z,1002.64
2022-09-18T07:54:58.136Z,1002.73
2022-09-18T07:55:58.115Z,1002.73
2022-09-18T07:56:58.105Z,1002.69
2022-09-18T07:57:58.114Z,1002.7
2022-09-18T07:58:58.112Z,1002.72
2022-09-18T07:59:58.138Z,1002.67
2022-09-18T08:00:58.117Z,1002.68
2022-09-18T08:01:58.259Z,1002.7
2022-09-18T08:02:58.231Z,1002.72
2022-09-18T08:03:58.120Z,1002.72
2022-09-18T08:04:58.129Z,1002.69
2022-09-18T08:05:58.106Z,1002.67
2022-09-18T08:06:58.107Z,1002.71
2022-09-18T08:07:58.112Z,1002.62
2022-09-18T08:08:58.112Z,1002.65
2022-09-18T08:09:58.148Z,1002.65
2022-09-18T08:10:58.115Z,1002.7
2022-09-18T08:11:58.234Z,1002.64
2022-09-18T08:12:58.114Z,1002.64
2022-09-18T08:13:58.117Z,1002.57
2022-09-18T08:14:58.156Z,1002.63
2022-09-18T08:15:58.381Z,1002.63
2022-09-18T08:16:58.146Z,1002.59
2022-09-18T08:17:58.109Z,1002.64
2022-09-18T08:18:58.106Z,1002.63
2022-09-18T08:19:58.112Z,1002.58
2022-09-18T08:20:58.114Z,1002.58
2022-09-18T08:21:58.127Z,1002.62
2022-09-18T08:22:58.264Z,1002.6
2022-09-18T08:23:58.266Z,1002.59
2022-09-18T08:24:58.259Z,1002.56
2022-09-18T08:25:58.186Z,1002.61
2022-09-18T08:26:58.109Z,1002.51
2022-09-18T08:27:58.104Z,1002.58
2022-09-18T08:28:58.114Z,1002.56
2022-09-18T08:29:58.121Z,1002.6
2022-09-18T08:30:58.159Z,1002.59
2022-09-18T08:31:58.136Z,1002.57
2022-09-18T08:32:58.108Z,1002.55
2022-09-18T08:33:58.124Z,1002.56
2022-09-18T08:34:58.144Z,1002.58
2022-09-18T08:35:58.113Z,1002.58
2022-09-18T08:36:58.239Z,1002.55
2022-09-18T08:37:58.107Z,1002.56
2022-09-18T08:38:58.106Z,1002.57
2022-09-18T08:39:58.141Z,1002.62
2022-09-18T08:40:58.114Z,1002.56
2022-09-18T08:41:58.098Z,1002.53
2022-09-18T08:42:58.123Z,1002.55
2022-09-18T08:43:58.119Z,1002.53
2022-09-18T08:44:58.142Z,1002.55
2022-09-18T08:45:58.115Z,1002.56
2022-09-18T08:46:58.156Z,1002.52
2022-09-18T08:47:58.189Z,1002.48
2022-09-18T08:48:58.100Z,1002.49
2022-09-18T08:49:58.144Z,1002.49
2022-09-18T08:50:58.099Z,1002.52
2022-09-18T08:51:58.083Z,1002.5
2022-09-18T08:52:58.110Z,1002.5
2022-09-18T08:53:58.102Z,1002.5
2022-09-18T08:54:58.324Z,1002.56
2022-09-18T08:55:58.275Z,1002.56
2022-09-18T08:56:58.488Z,1002.54
2022-09-18T08:57:58.126Z,1002.55
2022-09-18T08:58:58.323Z,1002.56
2022-09-18T08:59:58.093Z,1002.58
2022-09-18T09:00:58.427Z,1002.61
2022-09-18T09:01:58.228Z,1002.55
2022-09-18T09:02:58.221Z,1002.54
2022-09-18T09:03:58.205Z,1002.57
2022-09-18T09:04:58.300Z,1002.55
2022-09-18T09:05:58.447Z,1002.53
2022-09-18T09:06:58.268Z,1002.53
2022-09-18T09:07:58.104Z,1002.48
2022-09-18T09:08:58.449Z,1002.52
2022-09-18T09:09:58.089Z,1002.48
2022-09-18T09:10:58.399Z,1002.51
2022-09-18T09:11:58.112Z,1002.5
2022-09-18T09:12:58.106Z,1002.51
2022-09-18T09:13:58.111Z,1002.5
2022-09-18T09:15:01.715Z,1002.54
2022-09-18T09:15:58.145Z,1002.54
2022-09-18T09:16:58.112Z,1002.53
2022-09-18T09:17:58.110Z,1002.49
2022-09-18T09:18:58.128Z,1002.5
2022-09-18T09:19:58.139Z,1002.46
2022-09-18T09:20:58.321Z,1002.54
2022-09-18T09:21:58.103Z,1002.48
2022-09-18T09:22:58.106Z,1002.51
2022-09-18T09:23:58.107Z,1002.54
2022-09-18T09:24:58.115Z,1002.59
2022-09-18T09:25:58.104Z,1002.58
2022-09-18T09:26:58.120Z,1002.55
2022-09-18T09:27:58.115Z,1002.58
2022-09-18T09:28:58.103Z,1002.49
2022-09-18T09:29:58.112Z,1002.58
2022-09-18T09:30:58.101Z,1002.57
2022-09-18T09:31:58.145Z,1002.54
2022-09-18T09:32:58.109Z,1002.53
2022-09-18T09:33:58.105Z,1002.58
2022-09-18T09:34:58.094Z,1002.59
2022-09-18T09:35:58.132Z,1002.57
2022-09-18T09:36:58.121Z,1002.55
2022-09-18T09:37:58.101Z,1002.56
2022-09-18T09:38:58.139Z,1002.61
2022-09-18T09:39:58.149Z,1002.55
2022-09-18T09:40:58.117Z,1002.56
2022-09-18T09:41:58.177Z,1002.54
2022-09-18T09:42:58.329Z,1002.59
2022-09-18T09:43:58.108Z,1002.57
2022-09-18T09:44:58.105Z,1002.57
2022-09-18T09:45:58.091Z,1002.58
2022-09-18T09:46:58.178Z,1002.56
2022-09-18T09:47:58.142Z,1002.55
2022-09-18T09:48:58.149Z,1002.58
2022-09-18T09:49:58.176Z,1002.59
2022-09-18T09:50:58.525Z,1002.55
2022-09-18T09:51:58.400Z,1002.56
2022-09-18T09:52:58.787Z,1002.55
2022-09-18T09:53:57.957Z,1002.57
2022-09-18T09:54:58.195Z,1002.58
2022-09-18T09:55:58.494Z,1002.54
2022-09-18T09:56:57.800Z,1002.54
2022-09-18T09:57:58.127Z,1002.51
2022-09-18T09:58:58.370Z,1002.56
2022-09-18T09:59:58.737Z,1002.55
2022-09-18T10:00:58.277Z,1002.57
2022-09-18T10:01:58.522Z,1002.57
2022-09-18T10:02:58.848Z,1002.52
2022-09-18T10:03:58.640Z,1002.49
2022-09-18T10:04:58.410Z,1002.5
2022-09-18T10:05:58.222Z,1002.53
2022-09-18T10:06:58.496Z,1002.45
2022-09-18T10:07:58.242Z,1002.48
2022-09-18T10:08:58.137Z,1002.52
2022-09-18T10:09:58.397Z,1002.53
2022-09-18T10:10:58.133Z,1002.53
2022-09-18T10:12:01.594Z,1002.51
2022-09-18T10:12:58.690Z,1002.53
2022-09-18T10:13:58.109Z,1002.52
2022-09-18T10:14:58.280Z,1002.51
2022-09-18T10:15:58.162Z,1002.51
2022-09-18T10:16:58.102Z,1002.53
2022-09-18T10:17:58.134Z,1002.55
2022-09-18T10:18:58.093Z,1002.55
2022-09-18T10:19:58.099Z,1002.52
2022-09-18T10:20:58.136Z,1002.51
2022-09-18T10:21:58.085Z,1002.5
2022-09-18T10:22:58.130Z,1002.49
2022-09-18T10:23:58.103Z,1002.43
2022-09-18T10:24:58.107Z,1002.47
2022-09-18T10:25:58.259Z,1002.49
2022-09-18T10:26:58.130Z,1002.44
2022-09-18T10:27:58.262Z,1002.43
2022-09-18T10:28:58.072Z,1002.43
2022-09-18T10:29:58.322Z,1002.39
2022-09-18T10:30:58.083Z,1002.49
2022-09-18T10:31:58.436Z,1002.5
2022-09-18T10:32:58.179Z,1002.53
2022-09-18T10:33:58.495Z,1002.54
2022-09-18T10:34:58.799Z,1002.5
2022-09-18T10:35:58.517Z,1002.44
2022-09-18T10:36:58.502Z,1002.45
2022-09-18T10:37:58.629Z,1002.45
2022-09-18T10:38:58.536Z,1002.43
2022-09-18T10:39:58.346Z,1002.44
2022-09-18T10:40:58.595Z,1002.42
2022-09-18T10:41:58.891Z,1002.44
2022-09-18T10:42:59.098Z,1002.43
2022-09-18T10:43:58.271Z,1002.39
2022-09-18T10:45:04.694Z,1002.38
2022-09-18T10:45:58.840Z,1002.36
2022-09-18T10:46:58.492Z,1002.37
2022-09-18T10:47:58.215Z,1002.38
2022-09-18T10:48:58.501Z,1002.35
2022-09-18T10:49:59.217Z,1002.38
2022-09-18T10:50:58.106Z,1002.37
2022-09-18T10:51:58.255Z,1002.36
2022-09-18T10:52:58.112Z,1002.36
2022-09-18T10:53:58.123Z,1002.33
2022-09-18T10:54:58.116Z,1002.31
2022-09-18T10:55:59.419Z,1002.27
2022-09-18T10:56:58.494Z,1002.38
2022-09-18T10:57:58.205Z,1002.38
2022-09-18T10:58:58.208Z,1002.38
2022-09-18T10:59:58.160Z,1002.33
2022-09-18T11:00:58.167Z,1002.28
2022-09-18T11:01:58.153Z,1002.31
2022-09-18T11:02:58.145Z,1002.32
2022-09-18T11:03:58.108Z,1002.3
2022-09-18T11:04:58.107Z,1002.33
2022-09-18T11:05:58.113Z,1002.3
2022-09-18T11:06:58.114Z,1002.29
2022-09-18T11:07:58.152Z,1002.29
2022-09-18T11:08:58.199Z,1002.29
2022-09-18T11:09:58.114Z,1002.29
2022-09-18T11:10:58.110Z,1002.28
2022-09-18T11:11:58.106Z,1002.3
2022-09-18T11:12:58.126Z,1002.3
2022-09-18T11:13:58.113Z,1002.28
2022-09-18T11:14:58.119Z,1002.3
2022-09-18T11:15:58.181Z,1002.29
2022-09-18T11:16:58.120Z,1002.31
2022-09-18T11:17:58.148Z,1002.33
2022-09-18T11:18:58.117Z,1002.33
2022-09-18T11:19:58.224Z,1002.24
2022-09-18T11:20:58.211Z,1002.27
2022-09-18T11:21:58.107Z,1002.25
2022-09-18T11:22:58.136Z,1002.23
2022-09-18T11:23:58.116Z,1002.23
2022-09-18T11:24:58.127Z,1002.21
2022-09-18T11:25:58.112Z,1002.16
2022-09-18T11:26:58.106Z,1002.17
2022-09-18T11:27:58.154Z,1002.12
2022-09-18T11:28:58.110Z,1002.15
2022-09-18T11:29:58.114Z,1002.17
2022-09-18T11:30:58.120Z,1002.13
2022-09-18T11:31:58.412Z,1002.17
2022-09-18T11:32:58.123Z,1002.16
2022-09-18T11:33:59.967Z,1002.16
2022-09-18T11:34:58.097Z,1002.16
2022-09-18T11:35:58.108Z,1002.18
2022-09-18T11:36:58.109Z,1002.14
2022-09-18T11:37:58.109Z,1002.16
2022-09-18T11:38:58.117Z,1002.16
2022-09-18T11:39:58.140Z,1002.16
2022-09-18T11:40:58.113Z,1002.16
2022-09-18T11:41:58.124Z,1002.17
2022-09-18T11:42:58.115Z,1002.18
2022-09-18T11:43:58.123Z,1002.19
2022-09-18T11:44:58.100Z,1002.19
2022-09-18T11:45:58.153Z,1002.24
2022-09-18T11:46:58.194Z,1002.25
2022-09-18T11:47:58.110Z,1002.26
2022-09-18T11:49:04.376Z,1002.17
2022-09-18T11:49:58.120Z,1002.19
2022-09-18T11:50:58.115Z,1002.23
2022-09-18T11:51:58.112Z,1002.18
2022-09-18T11:52:58.222Z,1002.21
2022-09-18T11:53:58.215Z,1002.19
2022-09-18T11:54:58.108Z,1002.18
2022-09-18T11:55:58.105Z,1002.18
2022-09-18T11:56:58.106Z,1002.22
2022-09-18T11:57:58.097Z,1002.21
2022-09-18T11:58:58.121Z,1002.23
2022-09-18T11:59:58.122Z,1002.23
2022-09-18T12:01:04.960Z,1002.25
2022-09-18T12:01:58.143Z,1002.26
2022-09-18T12:02:58.211Z,1002.29
2022-09-18T12:03:58.134Z,1002.27
2022-09-18T12:04:58.104Z,1002.22
2022-09-18T12:05:58.101Z,1002.23
2022-09-18T12:06:58.074Z,1002.21
2022-09-18T12:07:56.732Z,1002.19
2022-09-18T12:08:56.733Z,1002.22